Full Name Source Type Commits Attempts Last Result Actions Queries Updated
    django-wiki/django-wiki 1316 39 Success 36 1785 2016-08-16
    jasonivers/BaseRailsAppWithUsersRoles 1 28 Success 2 2 2016-10-26
    drupal/commerce_kickstart - 19 Success 49 10723 2016-04-07
    cgonzalezsanc/2015-saro-pfinal 2 19 Success 3 16 2016-08-15
    cursorzz/kuaijiti 63 19 Success 6 60 2016-08-15
    avaraline/leaves-cms 10 19 Success 1 6 2016-08-15
    ciudadanointeligente/municipales-2012 569 19 Success 3 19 2016-08-15
    h3/django-editlive 207 19 Success 1 4 2016-10-26
    bhatia14/Python_Search_Engine 1 19 Success 2 28 2016-10-26
    Bionetbook/bionetbook 1608 18 Success 4 32 2016-08-16
    yiyocx/djangorest_snippets 9 18 Success 6 77 2016-10-26
    srikirank/django-GET 11 17 Success 10 74 2016-08-15
    ciudadanointeligente/votainteligente 587 17 Success 2 10 2016-08-15
    raviteja91/chatapp 1 16 Success 1 8 2016-08-12
    rene-pxl/django 1 16 Success 1 4 2016-08-13
    luanfonceca/leitech 177 16 Success 19 321 2016-08-13
    dosko64/ops 1 16 Success 7 53 2016-08-13
    ericgarig/Pizzo 8 16 Success 1 5 2016-08-14
    samolds/samster 175 16 Success 13 65 2016-08-15
    Gnnng/Weibo 72 16 Success 1 1 2016-08-08
    DipakPanchal/magazine_app 1 16 Success 6 22 2016-11-21
    iosifvilcea/Scrap 135 15 Success 2 10 2016-08-13
    rwspicer/ARDA 143 15 Success 2 18 2016-08-13
    victorevector/project_changelogs 2 15 Success 1 5 2016-08-14
    filipedc82/tddfirst 50 15 Success 5 25 2016-08-14
    alexrobl/itga 1 15 Success 1 5 2016-08-14
    bravive/CarRentalSystem 2 15 Success 2 19 2016-08-14
    jkol36/glidewithus 18 15 Success 2 10 2016-08-15
    Brittanyzhou/itemrtproject 2 14 Success 2 8 2016-08-12
    vsushyk/django_project 1 14 Success 1 4 2016-08-12
    MiguelLunaHernandez/MyFirstAppDjango 5 14 Success 2 8 2016-08-12
    danaspiegel/hatchery-code 45 14 Success 6 119 2016-08-12
    ServerListing/Server_Listing 157 14 Success 2 25 2016-08-12
    sparcs-kaist/sciwar 222 14 Success 5 42 2016-08-12
    Ursala/Nepal 1 14 Success 1 5 2016-08-13
    Vendetta131/Django 18 14 Success 1 5 2016-08-13
    artainis/django-wiki 1263 14 Success 33 1655 2016-08-14
    juandhack/hubmedicos 121 14 Success 5 76 2016-08-14
    davidarnold/clubhouse 6 14 Success 2 25 2016-08-15
    cryptobanana/labtool 1 14 Success 2 187 2016-08-15
    nadavperetz/MeneEduca 237 14 Success 2 18 2016-08-15
    mrcrgl/stockstore 17 14 Success 2 25 2016-08-15
    stealthycoin/toilet_mapper 472 14 Success 2 12 2016-08-16
    aschobba/effektivedjango 12 14 Success 1 5 2016-08-16
    jiangpen/carshare_django 2 14 Success 2 20 2016-08-16
    osrodolfo/mi-sitio-web 1 14 Success 1 9 2016-08-16
    zuweie/voice 4 14 Success 11 77 2016-09-27
    lodantas/my-first-blog 9 14 Success 1 5 2016-10-26
    waltralex63/myreposit 1 14 Success 1 9 2016-10-26
    alykhank/Tunezout 173 14 Success 2 18 2016-10-26